Segundo, Colorado
Current Conditions -  °F | °C
As of 5:54 PM on Sunday 23 Nov 2014 (Local Time) from KTAD Reporting Station
Overcast Overcast  
Wind Chill: 23°   Ceiling: 5500
Heat Index: 31°   Visibility: 10mi
Dew Point: 22°   Wind: 9mph
Humidity: 69%   Direction: 330°NNW
Pressure: 29.89"   Gusts: NA
Location:  37.1661°N, 104.486°W
Report Text: KTAD 240054Z AUTO 33008KT 10SM BKN055 OVC070 M01/M06 A2989 RMK AO2 SLP118 T10061056
Loading
Personal Weather Stations






























Interactive Weather Map New forecast layout! Learn more

10-Day Weather Forecast

Advertisements
Track Severe Weather on mobile